createdAt,value
2018-01-24T00:01:02.369Z,14.37
2018-01-24T00:03:29.839Z,15.20
2018-01-24T00:05:57.503Z,11.60
2018-01-24T00:08:24.956Z,14.20
2018-01-24T00:10:53.155Z,13.87
2018-01-24T00:13:21.025Z,12.40
2018-01-24T00:15:48.484Z,17.07
2018-01-24T00:18:16.282Z,13.57
2018-01-24T00:20:44.740Z,11.17
2018-01-24T00:23:12.988Z,14.53
2018-01-24T00:25:40.434Z,12.13
2018-01-24T00:28:08.140Z,16.50
2018-01-24T00:30:37.489Z,11.70
2018-01-24T00:33:05.343Z,16.03
2018-01-24T00:35:32.808Z,13.00
2018-01-24T00:38:00.279Z,14.43
2018-01-24T00:40:27.722Z,17.33
2018-01-24T00:42:55.262Z,14.97
2018-01-24T00:45:22.699Z,12.53
2018-01-24T00:47:50.924Z,14.77
2018-01-24T00:50:18.389Z,16.53
2018-01-24T00:52:45.943Z,11.57
2018-01-24T00:55:13.386Z,11.57
2018-01-24T00:57:41.309Z,11.87
2018-01-24T01:00:09.550Z,12.77
2018-01-24T01:02:37.007Z,10.83
2018-01-24T01:05:04.470Z,12.30
2018-01-24T01:07:32.678Z,12.10
2018-01-24T01:10:01.270Z,15.27
2018-01-24T01:12:29.693Z,12.10
2018-01-24T01:14:57.155Z,10.83
2018-01-24T01:17:24.604Z,11.03
2018-01-24T01:19:52.288Z,12.30
2018-01-24T01:22:19.759Z,10.10
2018-01-24T01:24:47.984Z,10.27
2018-01-24T01:27:15.974Z,10.90
2018-01-24T01:29:43.945Z,8.00
2018-01-24T01:32:11.407Z,8.50
2018-01-24T01:34:38.868Z,9.93
2018-01-24T01:37:06.352Z,18.27
2018-01-24T01:39:34.565Z,10.70
2018-01-24T01:42:02.041Z,13.40
2018-01-24T01:44:29.512Z,11.90
2018-01-24T01:46:57.980Z,13.13
2018-01-24T01:49:25.949Z,12.17
2018-01-24T01:51:53.708Z,11.90
2018-01-24T01:54:21.168Z,9.93
2018-01-24T01:56:48.652Z,11.67
2018-01-24T01:59:16.869Z,12.60
2018-01-24T02:01:44.341Z,12.80
2018-01-24T02:04:11.818Z,10.43
2018-01-24T02:06:39.370Z,12.30
2018-01-24T02:09:07.294Z,11.80
2018-01-24T02:11:34.768Z,10.43
2018-01-24T02:14:02.965Z,9.67
2018-01-24T02:16:30.439Z,9.53
2018-01-24T02:18:58.187Z,8.60
2018-01-24T02:21:26.155Z,12.03
2018-01-24T02:23:53.757Z,10.50
2018-01-24T02:26:21.979Z,11.00
2018-01-24T02:28:49.727Z,10.23
2018-01-24T02:31:17.620Z,9.50
2018-01-24T02:33:45.098Z,12.43
2018-01-24T02:36:12.577Z,17.73
2018-01-24T02:39:03.611Z,11.10
2018-01-24T02:41:31.517Z,13.47
2018-01-24T02:43:58.969Z,11.00
2018-01-24T02:46:26.446Z,11.00
2018-01-24T02:48:53.921Z,11.07
2018-01-24T02:51:22.175Z,14.37
2018-01-24T02:53:49.648Z,15.70
2018-01-24T02:56:17.986Z,11.00
2018-01-24T02:58:45.428Z,10.90
2018-01-24T03:01:13.317Z,11.60
2018-01-24T03:03:40.768Z,14.03
2018-01-24T03:06:08.300Z,13.93
2018-01-24T03:08:35.749Z,12.37
2018-01-24T03:11:03.456Z,11.60
2018-01-24T03:13:31.388Z,12.37
2018-01-24T03:15:59.215Z,11.77
2018-01-24T03:18:28.089Z,11.30
2018-01-24T03:20:56.304Z,11.30
2018-01-24T03:23:23.780Z,10.70
2018-01-24T03:25:51.360Z,12.57
2018-01-24T03:28:19.068Z,10.43
2018-01-24T03:30:47.762Z,13.00
2018-01-24T03:33:15.241Z,10.70
2018-01-24T03:35:42.689Z,10.67
2018-01-24T03:38:10.185Z,12.67
2018-01-24T03:40:37.633Z,12.17
2018-01-24T03:43:05.116Z,12.40
2018-01-24T03:45:33.332Z,11.30
2018-01-24T03:48:01.209Z,19.73
2018-01-24T03:50:28.713Z,10.67
2018-01-24T03:52:56.221Z,10.53
2018-01-24T03:55:23.956Z,11.63
2018-01-24T03:57:51.408Z,12.83
2018-01-24T04:00:18.877Z,10.00
2018-01-24T04:02:46.329Z,11.97
2018-01-24T04:05:13.803Z,13.10
2018-01-24T04:07:41.253Z,16.93
2018-01-24T04:10:09.068Z,10.67
2018-01-24T04:12:36.836Z,9.17
2018-01-24T04:15:04.454Z,8.67
2018-01-24T04:17:31.895Z,9.73
2018-01-24T04:19:59.719Z,11.00
2018-01-24T04:22:27.164Z,10.67
2018-01-24T04:24:54.624Z,12.03
2018-01-24T04:27:22.997Z,12.13
2018-01-24T04:29:51.167Z,11.33
2018-01-24T04:32:18.644Z,9.17
2018-01-24T04:34:46.968Z,15.40
2018-01-24T04:37:14.442Z,10.97
2018-01-24T04:39:41.881Z,8.60
2018-01-24T04:42:09.349Z,11.37
2018-01-24T04:44:36.831Z,10.63
2018-01-24T04:47:05.327Z,10.27
2018-01-24T04:49:33.536Z,10.77
2018-01-24T04:52:01.016Z,10.23
2018-01-24T04:54:28.463Z,10.50
2018-01-24T04:56:55.913Z,9.77
2018-01-24T04:59:23.605Z,11.10
2018-01-24T05:01:51.074Z,12.80
2018-01-24T05:04:18.863Z,11.53
2018-01-24T05:06:47.081Z,8.70
2018-01-24T05:09:14.875Z,9.90
2018-01-24T05:11:42.439Z,10.07
2018-01-24T05:14:10.978Z,10.87
2018-01-24T05:16:38.422Z,10.63
2018-01-24T05:19:06.279Z,10.00
2018-01-24T05:21:43.677Z,15.53
2018-01-24T05:24:11.863Z,11.73
2018-01-24T05:26:39.334Z,9.00
2018-01-24T05:29:07.107Z,11.40
2018-01-24T05:31:34.909Z,8.03
2018-01-24T05:34:02.348Z,13.83
2018-01-24T05:36:29.833Z,11.97
2018-01-24T05:38:58.035Z,10.20
2018-01-24T05:41:25.524Z,8.37
2018-01-24T05:43:52.977Z,8.73
2018-01-24T05:46:20.646Z,5.70
2018-01-24T05:48:48.103Z,8.77
2018-01-24T05:51:15.765Z,6.50
2018-01-24T05:53:43.208Z,7.33
2018-01-24T05:56:10.990Z,6.20
2018-01-24T05:58:38.898Z,6.67
2018-01-24T06:01:11.492Z,8.77
2018-01-24T06:03:39.074Z,6.37
2018-01-24T06:06:06.554Z,7.13
2018-01-24T06:08:33.991Z,6.20
2018-01-24T06:11:01.824Z,4.90
2018-01-24T06:13:29.699Z,5.53
2018-01-24T06:15:57.515Z,7.13
2018-01-24T06:18:25.765Z,4.53
2018-01-24T06:20:53.427Z,3.40
2018-01-24T06:23:20.906Z,4.20
2018-01-24T06:25:48.440Z,2.50
2018-01-24T06:28:17.238Z,4.30
2018-01-24T06:30:45.208Z,3.17
2018-01-24T06:33:12.688Z,2.53
2018-01-24T06:35:40.913Z,4.10
2018-01-24T06:38:08.496Z,2.60
2018-01-24T06:40:35.945Z,3.50
2018-01-24T06:43:03.414Z,4.90
2018-01-24T06:45:30.879Z,5.10
2018-01-24T06:47:58.516Z,2.67
2018-01-24T06:50:26.384Z,5.13
2018-01-24T06:52:54.178Z,1.87
2018-01-24T06:55:22.400Z,3.80
2018-01-24T06:57:50.097Z,3.13
2018-01-24T07:00:17.737Z,2.30
2018-01-24T07:02:45.188Z,1.83
2018-01-24T07:05:13.072Z,2.30
2018-01-24T07:07:40.511Z,2.70
2018-01-24T07:10:08.402Z,5.27
2018-01-24T07:12:48.835Z,1.90
2018-01-24T07:15:16.292Z,2.07
2018-01-24T07:17:43.736Z,2.03
2018-01-24T07:20:11.630Z,1.70
2018-01-24T07:22:39.125Z,1.17
2018-01-24T07:25:06.553Z,1.47
2018-01-24T07:27:34.410Z,2.00
2018-01-24T07:30:02.272Z,3.17
2018-01-24T07:32:29.752Z,1.60
2018-01-24T07:34:57.208Z,2.13
2018-01-24T07:37:24.682Z,1.40
2018-01-24T07:39:52.915Z,4.10
2018-01-24T07:42:20.486Z,1.77
2018-01-24T07:44:47.969Z,2.53
2018-01-24T07:47:16.527Z,1.70
2018-01-24T07:49:43.994Z,1.70
2018-01-24T07:52:11.611Z,1.63
2018-01-24T07:54:39.637Z,2.30
2018-01-24T07:57:07.077Z,2.23
2018-01-24T07:59:35.315Z,1.93
2018-01-24T08:02:02.757Z,4.20
2018-01-24T08:04:30.231Z,2.30
2018-01-24T08:06:57.686Z,1.70
2018-01-24T08:09:25.560Z,2.13
2018-01-24T08:11:53.103Z,2.87
2018-01-24T08:14:21.012Z,1.40
2018-01-24T08:16:48.455Z,1.50
2018-01-24T08:19:16.832Z,4.70
2018-01-24T08:21:44.548Z,1.57
2018-01-24T08:24:12.025Z,1.90
2018-01-24T08:26:39.497Z,1.43
2018-01-24T08:29:07.471Z,2.30
2018-01-24T08:31:35.311Z,1.33
2018-01-24T08:34:02.760Z,2.07
2018-01-24T08:36:30.243Z,1.43
2018-01-24T08:38:57.727Z,2.47
2018-01-24T08:41:25.945Z,1.00
2018-01-24T08:43:53.415Z,1.27
2018-01-24T08:46:21.924Z,1.77
2018-01-24T08:48:49.373Z,0.97
2018-01-24T08:51:16.852Z,2.60
2018-01-24T08:53:45.825Z,1.20
2018-01-24T08:56:13.299Z,3.43
2018-01-24T08:58:40.782Z,1.37
2018-01-24T09:01:09.128Z,5.77
2018-01-24T09:03:36.579Z,1.10
2018-01-24T09:06:04.061Z,0.70
2018-01-24T09:08:31.537Z,0.60
2018-01-24T09:11:00.087Z,3.03
2018-01-24T09:13:28.265Z,0.70
2018-01-24T09:15:55.705Z,1.07
2018-01-24T09:18:23.183Z,0.90
2018-01-24T09:20:51.131Z,0.80
2018-01-24T09:23:18.622Z,2.40
2018-01-24T09:25:46.841Z,0.90
2018-01-24T09:28:14.565Z,2.70
2018-01-24T09:30:43.309Z,0.83
2018-01-24T09:33:10.794Z,1.43
2018-01-24T09:35:38.528Z,0.90
2018-01-24T09:38:06.419Z,1.20
2018-01-24T09:40:33.917Z,0.83
2018-01-24T09:43:01.392Z,1.97
2018-01-24T09:45:28.868Z,1.00
2018-01-24T09:47:56.344Z,1.03
2018-01-24T09:50:23.842Z,2.40
2018-01-24T09:52:51.394Z,1.07
2018-01-24T09:55:18.828Z,0.83
2018-01-24T09:57:47.280Z,0.70
2018-01-24T10:00:14.739Z,0.70
2018-01-24T10:02:42.210Z,0.60
2018-01-24T10:05:09.706Z,1.27
2018-01-24T10:07:37.147Z,1.40
2018-01-24T10:10:05.803Z,1.20
2018-01-24T10:12:33.651Z,1.73
2018-01-24T10:15:01.107Z,2.77
2018-01-24T10:17:28.620Z,1.13
2018-01-24T10:19:56.553Z,1.90
2018-01-24T10:22:24.778Z,0.90
2018-01-24T10:24:52.259Z,0.70
2018-01-24T10:27:20.338Z,4.33
2018-01-24T10:29:48.233Z,1.00
2018-01-24T10:32:15.664Z,1.10
2018-01-24T10:34:44.357Z,1.33
2018-01-24T10:37:12.373Z,1.20
2018-01-24T10:39:39.844Z,3.33
2018-01-24T10:42:07.312Z,1.07
2018-01-24T10:44:34.792Z,0.90
2018-01-24T10:47:02.258Z,0.77
2018-01-24T10:49:29.901Z,2.13
2018-01-24T10:51:58.112Z,1.80
2018-01-24T10:54:26.370Z,0.70
2018-01-24T10:56:53.879Z,1.27
2018-01-24T10:59:21.326Z,1.57
2018-01-24T11:01:48.818Z,0.70
2018-01-24T11:04:16.260Z,0.57
2018-01-24T11:06:43.715Z,0.70
2018-01-24T11:09:12.557Z,2.47
2018-01-24T11:11:40.842Z,0.60
2018-01-24T11:14:09.829Z,0.83
2018-01-24T11:16:39.112Z,0.80
2018-01-24T11:19:07.447Z,0.63
2018-01-24T11:21:35.814Z,0.70
2018-01-24T11:24:04.774Z,0.70
2018-01-24T11:26:32.440Z,0.87
2018-01-24T11:29:01.631Z,0.80
2018-01-24T11:31:31.270Z,0.73
2018-01-24T11:34:00.491Z,2.20
2018-01-24T11:36:29.667Z,0.90
2018-01-24T11:38:59.287Z,0.70
2018-01-24T11:41:30.073Z,0.83
2018-01-24T11:43:59.070Z,0.70
2018-01-24T11:46:30.213Z,0.60
2018-01-24T11:48:58.612Z,0.90
2018-01-24T11:51:28.306Z,1.70
2018-01-24T11:53:57.823Z,1.00
2018-01-24T11:56:26.193Z,0.83
2018-01-24T11:58:55.469Z,0.90
2018-01-24T12:01:23.847Z,1.00
2018-01-24T12:03:51.821Z,1.00
2018-01-24T12:06:19.308Z,1.10
2018-01-24T12:08:49.188Z,1.90
2018-01-24T12:11:17.249Z,1.20
2018-01-24T12:13:46.033Z,1.07
2018-01-24T12:16:13.548Z,2.40
2018-01-24T12:18:41.519Z,6.03
2018-01-24T12:21:09.275Z,2.50
2018-01-24T12:23:36.741Z,1.10
2018-01-24T12:26:04.463Z,0.90
2018-01-24T12:28:32.125Z,6.63
2018-01-24T12:31:01.022Z,0.90
2018-01-24T12:33:29.248Z,2.60
2018-01-24T12:35:56.711Z,6.00
2018-01-24T12:38:24.372Z,0.90
2018-01-24T12:40:51.838Z,0.80
2018-01-24T12:43:19.280Z,1.13
2018-01-24T12:45:46.764Z,1.23
2018-01-24T12:48:14.277Z,1.70
2018-01-24T12:50:41.736Z,1.17
2018-01-24T12:53:10.448Z,1.53
2018-01-24T12:55:37.919Z,1.20
2018-01-24T12:58:05.400Z,1.23
2018-01-24T13:00:33.651Z,0.73
2018-01-24T13:03:01.095Z,1.00
2018-01-24T13:05:28.565Z,1.63
2018-01-24T13:07:56.167Z,1.07
2018-01-24T13:10:24.805Z,1.30
2018-01-24T13:12:52.594Z,1.03
2018-01-24T13:15:20.849Z,0.80
2018-01-24T13:17:48.800Z,1.07
2018-01-24T13:20:16.850Z,1.10
2018-01-24T13:22:44.311Z,0.80
2018-01-24T13:25:12.194Z,1.23
2018-01-24T13:27:39.962Z,1.10
2018-01-24T13:30:07.715Z,1.10
2018-01-24T13:32:35.212Z,1.00
2018-01-24T13:35:02.689Z,1.03
2018-01-24T13:37:30.333Z,0.90
2018-01-24T13:39:57.813Z,0.67
2018-01-24T13:42:25.558Z,3.40
2018-01-24T13:44:53.821Z,1.33
2018-01-24T13:47:21.379Z,1.20
2018-01-24T13:49:49.603Z,2.17
2018-01-24T13:52:17.598Z,1.60
2018-01-24T13:54:45.040Z,0.80
2018-01-24T13:57:12.808Z,2.33
2018-01-24T13:59:40.301Z,1.10
2018-01-24T14:02:07.753Z,0.87
2018-01-24T14:04:35.357Z,0.80
2018-01-24T14:07:03.189Z,1.20
2018-01-24T14:09:31.948Z,1.43
2018-01-24T14:11:59.393Z,1.10
2018-01-24T14:14:27.310Z,0.80
2018-01-24T14:16:55.535Z,0.87
2018-01-24T14:19:23.294Z,0.70
2018-01-24T14:21:51.785Z,0.70
2018-01-24T14:24:19.237Z,3.33
2018-01-24T14:26:47.701Z,1.30
2018-01-24T14:29:15.436Z,0.80
2018-01-24T14:31:44.220Z,1.00
2018-01-24T14:34:11.705Z,0.80
2018-01-24T14:36:39.154Z,0.80
2018-01-24T14:39:06.707Z,1.13
2018-01-24T14:41:34.149Z,0.90
2018-01-24T14:44:01.609Z,0.93
2018-01-24T14:46:29.075Z,1.30
2018-01-24T14:48:56.644Z,2.00
2018-01-24T14:51:24.100Z,0.90
2018-01-24T14:53:51.785Z,0.93
2018-01-24T14:56:19.264Z,1.40
2018-01-24T14:58:46.718Z,1.80
2018-01-24T15:01:14.681Z,3.90
2018-01-24T15:03:42.412Z,1.03
2018-01-24T15:06:10.642Z,1.13
2018-01-24T15:08:38.854Z,0.87
2018-01-24T15:11:06.692Z,0.90
2018-01-24T15:13:35.337Z,2.13
2018-01-24T15:16:02.909Z,1.13
2018-01-24T15:18:30.416Z,1.30
2018-01-24T15:20:59.384Z,1.90
2018-01-24T15:23:27.615Z,1.17
2018-01-24T15:25:55.144Z,2.23
2018-01-24T15:28:22.993Z,0.83
2018-01-24T15:30:50.932Z,0.83
2018-01-24T15:33:19.126Z,0.90
2018-01-24T15:35:46.582Z,1.87
2018-01-24T15:38:14.052Z,1.10
2018-01-24T15:40:41.621Z,1.23
2018-01-24T15:43:09.100Z,1.30
2018-01-24T15:45:36.631Z,4.90
2018-01-24T15:48:04.155Z,3.07
2018-01-24T15:50:31.986Z,3.50
2018-01-24T15:52:59.460Z,2.57
2018-01-24T15:55:27.220Z,1.10
2018-01-24T15:57:54.657Z,1.30
2018-01-24T16:00:22.111Z,1.20
2018-01-24T16:02:49.576Z,1.00
2018-01-24T16:05:17.114Z,1.17
2018-01-24T16:07:44.551Z,1.60
2018-01-24T16:10:12.538Z,1.00
2018-01-24T16:12:40.475Z,1.00
2018-01-24T16:15:08.209Z,1.17
2018-01-24T16:17:35.656Z,1.50
2018-01-24T16:20:03.121Z,1.07
2018-01-24T16:22:32.000Z,1.17
2018-01-24T16:24:59.470Z,1.37
2018-01-24T16:27:28.649Z,1.10
2018-01-24T16:29:56.572Z,3.20
2018-01-24T16:32:24.040Z,1.13
2018-01-24T16:34:51.563Z,0.73
2018-01-24T16:37:19.001Z,1.13
2018-01-24T16:39:46.614Z,1.03
2018-01-24T16:42:14.127Z,4.03
2018-01-24T16:44:41.588Z,0.80
2018-01-24T16:47:10.241Z,0.90
2018-01-24T16:49:38.075Z,1.43
2018-01-24T16:52:06.710Z,4.00
2018-01-24T16:54:34.228Z,0.80
2018-01-24T16:57:01.703Z,1.37
2018-01-24T16:59:29.172Z,1.53
2018-01-24T17:01:56.632Z,1.27
2018-01-24T17:04:24.901Z,1.90
2018-01-24T17:06:52.374Z,3.03
2018-01-24T17:09:20.431Z,1.37
2018-01-24T17:11:47.886Z,0.83
2018-01-24T17:14:15.656Z,0.80
2018-01-24T17:16:43.176Z,0.70
2018-01-24T17:19:10.664Z,2.70
2018-01-24T17:21:38.433Z,0.73
2018-01-24T17:24:05.908Z,4.10
2018-01-24T17:26:34.124Z,2.03
2018-01-24T17:29:02.241Z,0.80
2018-01-24T17:31:30.160Z,3.23
2018-01-24T17:33:57.612Z,2.93
2018-01-24T17:36:25.102Z,1.90
2018-01-24T17:38:52.567Z,1.43
2018-01-24T17:41:20.060Z,1.00
2018-01-24T17:43:48.714Z,3.90
2018-01-24T17:46:16.604Z,1.03
2018-01-24T17:48:44.041Z,1.20
2018-01-24T17:51:11.520Z,1.17
2018-01-24T17:53:39.729Z,6.33
2018-01-24T17:56:07.425Z,0.87
2018-01-24T17:58:35.036Z,0.70
2018-01-24T18:01:03.454Z,3.20
2018-01-24T18:03:30.923Z,1.00
2018-01-24T18:05:58.376Z,1.80
2018-01-24T18:08:26.771Z,1.00
2018-01-24T18:10:54.723Z,1.90
2018-01-24T18:13:22.701Z,1.17
2018-01-24T18:15:50.166Z,0.80
2018-01-24T18:18:17.632Z,0.77
2018-01-24T18:20:45.874Z,1.30
2018-01-24T18:23:13.763Z,1.10
2018-01-24T18:25:41.209Z,1.30
2018-01-24T18:28:09.074Z,1.53
2018-01-24T18:30:36.940Z,1.23
2018-01-24T18:33:04.504Z,0.90
2018-01-24T18:35:31.997Z,0.77
2018-01-24T18:38:00.901Z,0.83
2018-01-24T18:40:28.337Z,1.43
2018-01-24T18:42:56.574Z,1.07
2018-01-24T18:45:24.022Z,0.90
2018-01-24T18:47:51.521Z,2.67
2018-01-24T18:50:19.763Z,1.67
2018-01-24T18:52:47.239Z,1.47
2018-01-24T18:55:15.532Z,1.20
2018-01-24T18:57:43.756Z,1.80
2018-01-24T19:00:11.367Z,1.23
2018-01-24T19:02:39.586Z,1.37
2018-01-24T19:05:07.097Z,1.37
2018-01-24T19:07:35.304Z,0.97
2018-01-24T19:10:03.036Z,1.63
2018-01-24T19:12:30.927Z,2.60
2018-01-24T19:14:58.359Z,3.80
2018-01-24T19:17:26.670Z,4.77
2018-01-24T19:19:54.108Z,2.60
2018-01-24T19:22:22.035Z,2.00
2018-01-24T19:24:50.991Z,1.30
2018-01-24T19:27:18.885Z,1.30
2018-01-24T19:29:46.939Z,1.37
2018-01-24T19:32:14.719Z,2.73
2018-01-24T19:34:42.184Z,1.30
2018-01-24T19:37:09.859Z,1.57
2018-01-24T19:39:38.119Z,1.07
2018-01-24T19:42:05.750Z,1.60
2018-01-24T19:44:33.343Z,2.30
2018-01-24T19:47:00.886Z,1.10
2018-01-24T19:49:28.334Z,0.93
2018-01-24T19:51:55.847Z,2.20
2018-01-24T19:54:23.525Z,1.97
2018-01-24T19:56:50.984Z,1.70
2018-01-24T19:59:18.460Z,1.30
2018-01-24T20:01:45.915Z,1.30
2018-01-24T20:04:13.409Z,0.90
2018-01-24T20:06:41.642Z,1.30
2018-01-24T20:09:09.634Z,1.27
2018-01-24T20:11:37.075Z,1.47
2018-01-24T20:14:05.834Z,6.83
2018-01-24T20:16:33.307Z,1.00
2018-01-24T20:19:00.807Z,1.47
2018-01-24T20:21:28.268Z,1.03
2018-01-24T20:23:56.897Z,5.57
2018-01-24T20:26:24.728Z,2.20
2018-01-24T20:28:53.377Z,1.97
2018-01-24T20:31:21.163Z,0.77
2018-01-24T20:33:48.637Z,1.00
2018-01-24T20:36:16.865Z,1.20
2018-01-24T20:38:44.337Z,1.70
2018-01-24T20:41:11.786Z,2.80
2018-01-24T20:43:39.264Z,3.73
2018-01-24T20:46:07.490Z,1.33
2018-01-24T20:48:35.038Z,1.20
2018-01-24T20:51:02.492Z,1.30
2018-01-24T20:53:29.990Z,1.20
2018-01-24T20:55:57.420Z,1.30
2018-01-24T20:58:24.920Z,2.30
2018-01-24T21:00:52.391Z,1.40
2018-01-24T21:03:20.626Z,2.03
2018-01-24T21:05:48.361Z,2.87
2018-01-24T21:08:15.844Z,1.93
2018-01-24T21:10:44.033Z,4.27
2018-01-24T21:13:11.905Z,9.40
2018-01-24T21:15:39.384Z,3.40
2018-01-24T21:18:07.593Z,2.57
2018-01-24T21:20:35.397Z,1.40
2018-01-24T21:23:03.267Z,2.10
2018-01-24T21:25:31.505Z,3.10
2018-01-24T21:27:59.305Z,1.53
2018-01-24T21:30:27.361Z,2.10
2018-01-24T21:33:06.689Z,2.97
2018-01-24T21:35:46.112Z,1.00
2018-01-24T21:38:13.568Z,2.00
2018-01-24T21:40:41.041Z,5.10
2018-01-24T21:43:08.502Z,1.63
2018-01-24T21:45:36.027Z,2.00
2018-01-24T21:48:03.500Z,2.00
2018-01-24T21:50:30.966Z,2.07
2018-01-24T21:52:58.411Z,2.13
2018-01-24T21:55:25.960Z,2.23
2018-01-24T21:57:53.460Z,1.53
2018-01-24T22:00:20.953Z,1.87
2018-01-24T22:02:49.222Z,4.83
2018-01-24T22:05:17.532Z,3.57
2018-01-24T22:07:45.006Z,2.40
2018-01-24T22:10:12.783Z,1.70
2018-01-24T22:12:40.635Z,1.77
2018-01-24T22:15:08.532Z,2.00
2018-01-24T22:17:35.973Z,2.13
2018-01-24T22:20:03.479Z,4.13
2018-01-24T22:22:31.395Z,3.63
2018-01-24T22:24:58.851Z,2.30
2018-01-24T22:27:26.916Z,3.60
2018-01-24T22:29:56.527Z,3.70
2018-01-24T22:32:23.981Z,2.23
2018-01-24T22:34:51.493Z,1.57
2018-01-24T22:37:18.974Z,2.07
2018-01-24T22:39:46.387Z,3.20
2018-01-24T22:42:13.859Z,1.73
2018-01-24T22:44:41.311Z,1.70
2018-01-24T22:47:08.861Z,2.17
2018-01-24T22:49:36.884Z,7.10
2018-01-24T22:52:04.431Z,1.77
2018-01-24T22:54:31.854Z,3.77
2018-01-24T22:56:59.380Z,1.80
2018-01-24T22:59:26.820Z,2.13
2018-01-24T23:01:54.295Z,1.90
2018-01-24T23:04:21.745Z,2.70
2018-01-24T23:06:49.326Z,1.80
2018-01-24T23:09:17.984Z,2.10
2018-01-24T23:11:45.649Z,2.60
2018-01-24T23:14:13.713Z,3.23
2018-01-24T23:16:41.156Z,1.87
2018-01-24T23:19:08.652Z,2.33
2018-01-24T23:21:36.964Z,1.37
2018-01-24T23:24:04.790Z,2.40
2018-01-24T23:26:33.031Z,2.93
2018-01-24T23:29:00.652Z,2.93
2018-01-24T23:31:28.376Z,1.57
2018-01-24T23:33:55.812Z,2.03
2018-01-24T23:36:23.282Z,2.90
2018-01-24T23:38:51.502Z,1.77
2018-01-24T23:41:19.016Z,2.10
2018-01-24T23:43:46.485Z,1.87
2018-01-24T23:46:14.020Z,3.57
2018-01-24T23:48:41.497Z,2.57
2018-01-24T23:51:09.136Z,2.80
2018-01-24T23:53:36.601Z,1.80
2018-01-24T23:56:04.108Z,2.20
2018-01-24T23:58:31.817Z,2.57
